Terminal Aerodrome Forecast
Issued by NWS

Home | Current Version | Previous Version | Graphics & Text | Print | Product List | Glossary On
Versions: 1 2 3 4 5 6 7 8 9 10 11 12 13 14 15
000
FTUS43 KABR 251100
TAFMBG
TAF
KMBG 251120Z 2512/2612 01010KT P6SM FEW060 OVC080
     FM251500 35010KT 4SM BR OVC009=

USA.gov is the U.S. government's official web portal to all federal, state and local government web resources and services.